LXR weather

Luxor International Airport
Luxor, Qena Governorate, Egypt

Public forecast

Using degrees Celsius for public forecast. Weather courtesy of forecast.io.

Current aviation weather report (METAR) for Luxor International Airport

Retrieved 2020/04/03 08:00 UTC (13 minutes ago):

HELX 030800Z 00000KT 4000 HZ NSC 23/08 Q1015 TEMPO 3000

Aviation forecast (TAF) for Luxor International Airport

Retrieved 2020/04/03 06:48 UTC (1 hour ago):

TAF HELX 030500Z 0306/0412 32008KT CAVOK TEMPO 0306/0312 3000 HZ NSC